createdAt,value
2019-04-29T00:01:31.895Z,95703.48
2019-04-29T00:04:00.888Z,95703.84
2019-04-29T00:06:30.316Z,95704.34
2019-04-29T00:08:59.481Z,95705.90
2019-04-29T00:11:28.773Z,95699.78
2019-04-29T00:13:58.555Z,95699.56
2019-04-29T00:16:31.798Z,95698.95
2019-04-29T00:19:05.110Z,95701.13
2019-04-29T00:21:34.410Z,95697.05
2019-04-29T00:24:04.409Z,95695.70
2019-04-29T00:26:33.504Z,95695.83
2019-04-29T00:29:02.395Z,95694.83
2019-04-29T00:31:31.286Z,95691.50
2019-04-29T00:34:00.179Z,95693.95
2019-04-29T00:36:36.750Z,95697.36
2019-04-29T00:39:11.708Z,95695.53
2019-04-29T00:41:48.151Z,95689.47
2019-04-29T00:44:18.067Z,95688.11
2019-04-29T00:46:46.960Z,95677.58
2019-04-29T00:49:15.847Z,95680.88
2019-04-29T00:51:44.747Z,95674.84
2019-04-29T00:54:15.269Z,95677.13
2019-04-29T00:56:44.163Z,95674.48
2019-04-29T00:59:13.051Z,95675.33
2019-04-29T01:01:42.767Z,95672.81
2019-04-29T01:04:12.473Z,95676.37
2019-04-29T01:06:41.365Z,95673.09
2019-04-29T01:09:12.859Z,95676.37
2019-04-29T01:11:41.706Z,95678.22
2019-04-29T01:14:11.519Z,95685.56
2019-04-29T01:16:40.411Z,95680.81
2019-04-29T01:19:09.509Z,95678.77
2019-04-29T01:21:38.397Z,95672.29
2019-04-29T01:24:08.005Z,95674.22
2019-04-29T01:26:56.252Z,95674.22
2019-04-29T01:29:26.681Z,95673.72
2019-04-29T01:31:57.002Z,95681.63
2019-04-29T01:34:33.248Z,95681.19
2019-04-29T01:37:02.055Z,95684.27
2019-04-29T01:39:32.585Z,95687.06
2019-04-29T01:42:12.042Z,95691.88
2019-04-29T01:44:40.912Z,95672.81
2019-04-29T01:47:11.035Z,95681.73
2019-04-29T01:49:40.232Z,95682.41
2019-04-29T01:52:09.147Z,95685.50
2019-04-29T01:54:38.116Z,95687.35
2019-04-29T01:57:07.707Z,95680.27
2019-04-29T01:59:36.514Z,95679.83
2019-04-29T02:02:05.510Z,95678.12
2019-04-29T02:04:34.499Z,95677.55
2019-04-29T02:07:03.495Z,95675.52
2019-04-29T02:09:37.096Z,95678.84
2019-04-29T02:12:06.129Z,95678.84
2019-04-29T02:14:34.980Z,95675.89
2019-04-29T02:17:03.975Z,95676.16
2019-04-29T02:19:32.967Z,95679.10
2019-04-29T02:22:09.591Z,95671.52
2019-04-29T02:24:40.202Z,95673.45
2019-04-29T02:27:10.085Z,95679.01
2019-04-29T02:29:38.976Z,95668.77
2019-04-29T02:32:08.791Z,95665.84
2019-04-29T02:34:37.685Z,95669.47
2019-04-29T02:37:08.985Z,95670.14
2019-04-29T02:39:42.128Z,95661.12
2019-04-29T02:42:29.647Z,95662.60
2019-04-29T02:45:00.181Z,95668.84
2019-04-29T02:47:29.074Z,95657.63
2019-04-29T02:49:57.959Z,95655.45
2019-04-29T02:52:26.848Z,95647.27
2019-04-29T02:54:57.277Z,95644.62
2019-04-29T02:57:30.675Z,95640.28
2019-04-29T03:00:01.272Z,95638.27
2019-04-29T03:02:31.939Z,95641.34
2019-04-29T03:05:14.515Z,95631.59
2019-04-29T03:07:43.748Z,95634.98
2019-04-29T03:10:13.460Z,95635.72
2019-04-29T03:12:42.657Z,95638.31
2019-04-29T03:15:14.526Z,95630.38
2019-04-29T03:17:43.413Z,95633.55
2019-04-29T03:20:20.902Z,95629.33
2019-04-29T03:22:51.023Z,95625.65
2019-04-29T03:25:19.917Z,95629.17
2019-04-29T03:27:48.807Z,95629.47
2019-04-29T03:30:18.210Z,95626.66
2019-04-29T03:32:47.101Z,95625.94
2019-04-29T03:35:17.730Z,95625.52
2019-04-29T03:37:46.725Z,95624.88
2019-04-29T03:40:15.619Z,95618.14
2019-04-29T03:42:46.042Z,95620.09
2019-04-29T03:45:14.935Z,95623.71
2019-04-29T03:47:48.151Z,95627.19
2019-04-29T03:50:17.018Z,95623.81
2019-04-29T03:52:46.013Z,95629.42
2019-04-29T03:55:15.012Z,95624.98
2019-04-29T03:57:43.900Z,95623.28
2019-04-29T04:00:15.041Z,95620.25
2019-04-29T04:03:03.620Z,95627.92
2019-04-29T04:05:39.964Z,95628.05
2019-04-29T04:08:19.912Z,95626.63
2019-04-29T04:10:48.803Z,95630.02
2019-04-29T04:13:17.703Z,95632.16
2019-04-29T04:15:46.590Z,95634.34
2019-04-29T04:18:17.018Z,95633.85
2019-04-29T04:20:45.904Z,95632.19
2019-04-29T04:23:14.792Z,95637.45
2019-04-29T04:25:43.788Z,95646.42
2019-04-29T04:28:14.315Z,95646.84
2019-04-29T04:30:43.309Z,95653.66
2019-04-29T04:33:12.208Z,95656.41
2019-04-29T04:35:41.196Z,95656.29
2019-04-29T04:38:10.806Z,95661.86
2019-04-29T04:40:41.233Z,95656.46
2019-04-29T04:43:10.637Z,95659.38
2019-04-29T04:45:39.523Z,95663.90
2019-04-29T04:48:08.842Z,95668.75
2019-04-29T04:50:37.714Z,95671.19
2019-04-29T04:53:06.605Z,95667.14
2019-04-29T04:55:37.034Z,95671.73
2019-04-29T04:58:05.923Z,95670.56
2019-04-29T05:00:36.557Z,95669.84
2019-04-29T05:03:05.553Z,95674.36
2019-04-29T05:05:34.446Z,95676.59
2019-04-29T05:08:03.330Z,95679.90
2019-04-29T05:10:32.222Z,95674.41
2019-04-29T05:13:01.115Z,95668.55
2019-04-29T05:15:30.014Z,95677.92
2019-04-29T05:17:58.900Z,95673.59
2019-04-29T05:20:27.786Z,95675.16
2019-04-29T05:22:59.649Z,95676.33
2019-04-29T05:25:30.484Z,95672.75
2019-04-29T05:27:59.785Z,95679.37
2019-04-29T05:30:28.677Z,95675.34
2019-04-29T05:32:57.667Z,95677.14
2019-04-29T05:35:40.539Z,95684.35
2019-04-29T05:38:19.619Z,95679.77
2019-04-29T05:40:50.047Z,95683.23
2019-04-29T05:43:35.839Z,95689.84
2019-04-29T05:46:12.062Z,95690.38
2019-04-29T05:48:40.886Z,95695.51
2019-04-29T05:51:17.969Z,95695.12
2019-04-29T05:53:54.688Z,95700.97
2019-04-29T05:56:19.028Z,95698.28
2019-04-29T05:58:47.920Z,95697.80
2019-04-29T06:01:18.348Z,95699.02
2019-04-29T06:03:47.238Z,95702.48
2019-04-29T06:06:16.130Z,95703.77
2019-04-29T06:08:45.021Z,95699.47
2019-04-29T06:11:13.932Z,95699.46
2019-04-29T06:13:42.806Z,95698.43
2019-04-29T06:16:15.943Z,95701.92
2019-04-29T06:18:42.224Z,95702.80
2019-04-29T06:21:11.628Z,95708.89
2019-04-29T06:23:40.564Z,95699.44
2019-04-29T06:26:10.638Z,95705.66
2019-04-29T06:28:39.528Z,95711.16
2019-04-29T06:31:08.624Z,95710.03
2019-04-29T06:33:37.515Z,95710.78
2019-04-29T06:36:06.611Z,95710.05
2019-04-29T06:38:35.509Z,95704.05
2019-04-29T06:41:05.549Z,95707.56
2019-04-29T06:43:34.925Z,95707.70
2019-04-29T06:46:03.916Z,95711.15
2019-04-29T06:48:32.811Z,95707.52
2019-04-29T06:51:01.751Z,95720.61
2019-04-29T06:53:30.696Z,95721.89
2019-04-29T06:55:59.589Z,95722.03
2019-04-29T06:58:28.480Z,95723.09
2019-04-29T07:01:00.987Z,95718.37
2019-04-29T07:03:28.002Z,95720.87
2019-04-29T07:05:56.895Z,95722.97
2019-04-29T07:08:25.784Z,95714.73
2019-04-29T07:10:55.849Z,95712.56
2019-04-29T07:13:26.741Z,95719.44
2019-04-29T07:15:55.633Z,95717.93
2019-04-29T07:18:24.526Z,95716.23
2019-04-29T07:20:53.416Z,95709.16
2019-04-29T07:23:22.409Z,95713.19
2019-04-29T07:25:51.303Z,95711.78
2019-04-29T07:28:20.194Z,95714.28
2019-04-29T07:31:01.268Z,95714.28
2019-04-29T07:33:22.684Z,95712.70
2019-04-29T07:35:50.240Z,95715.56
2019-04-29T07:38:19.260Z,95713.58
2019-04-29T07:40:48.158Z,95717.59
2019-04-29T07:43:17.015Z,95718.27
2019-04-29T07:45:53.280Z,95714.36
2019-04-29T07:48:22.171Z,95714.75
2019-04-29T07:50:51.060Z,95710.84
2019-04-29T07:53:21.879Z,95710.84
2019-04-29T07:55:50.586Z,95716.53
2019-04-29T07:58:23.045Z,95714.47
2019-04-29T08:00:50.102Z,95712.46
2019-04-29T08:03:18.999Z,95718.14
2019-04-29T08:05:48.291Z,95722.53
2019-04-29T08:08:21.374Z,95718.91
2019-04-29T08:10:56.093Z,95712.98
2019-04-29T08:13:21.748Z,95718.72
2019-04-29T08:15:50.628Z,95707.67
2019-04-29T08:18:19.514Z,95707.14
2019-04-29T08:20:48.510Z,95713.97
2019-04-29T08:23:20.417Z,95706.78
2019-04-29T08:25:51.069Z,95712.07
2019-04-29T08:28:20.109Z,95705.49
2019-04-29T08:30:49.092Z,95703.03
2019-04-29T08:33:17.981Z,95699.20
2019-04-29T08:35:47.067Z,95701.42
2019-04-29T08:38:15.869Z,95700.64
2019-04-29T08:40:45.245Z,95702.03
2019-04-29T08:43:22.399Z,95702.59
2019-04-29T08:45:52.986Z,95694.47
2019-04-29T08:48:21.877Z,95696.94
2019-04-29T08:50:50.767Z,95691.29
2019-04-29T08:53:19.847Z,95690.86
2019-04-29T08:55:48.959Z,95686.95
2019-04-29T08:58:17.954Z,95686.08
2019-04-29T09:00:46.845Z,95687.58
2019-04-29T09:03:18.716Z,95687.48
2019-04-29T09:06:04.353Z,95674.07
2019-04-29T09:08:16.941Z,95686.52
2019-04-29T09:10:45.996Z,95688.60
2019-04-29T09:13:14.885Z,95688.65
2019-04-29T09:15:43.777Z,95685.67
2019-04-29T09:18:12.668Z,95677.88
2019-04-29T09:20:42.399Z,95675.56
2019-04-29T09:23:19.462Z,95670.36
2019-04-29T09:26:01.940Z,95676.88
2019-04-29T09:28:27.172Z,95676.06
2019-04-29T09:30:51.663Z,95673.75
2019-04-29T09:33:21.990Z,95680.67
2019-04-29T09:35:50.884Z,95673.23
2019-04-29T09:38:19.768Z,95671.45
2019-04-29T09:40:54.594Z,95662.45
2019-04-29T09:43:38.441Z,95663.44
2019-04-29T09:46:10.006Z,95658.28
2019-04-29T09:48:38.886Z,95655.37
2019-04-29T09:51:17.250Z,95657.98
2019-04-29T09:53:39.336Z,95661.22
2019-04-29T09:56:09.248Z,95653.56
2019-04-29T09:58:38.142Z,95652.05
2019-04-29T10:01:09.190Z,95648.64
2019-04-29T10:03:39.608Z,95650.45
2019-04-29T10:06:12.497Z,95647.86
2019-04-29T10:08:40.872Z,95645.95
2019-04-29T10:11:10.381Z,95646.08
2019-04-29T10:13:39.370Z,95653.16
2019-04-29T10:16:13.578Z,95646.48
2019-04-29T10:18:44.016Z,95655.39
2019-04-29T10:21:16.723Z,95648.35
2019-04-29T10:23:45.367Z,95656.08
2019-04-29T10:26:16.729Z,95653.42
2019-04-29T10:29:05.589Z,95646.27
2019-04-29T10:31:34.481Z,95652.14
2019-04-29T10:34:03.682Z,95640.05
2019-04-29T10:36:32.568Z,95634.58
2019-04-29T10:39:02.993Z,95640.87
2019-04-29T10:41:36.156Z,95640.17
2019-04-29T10:44:22.382Z,95637.55
2019-04-29T10:47:07.032Z,95640.52
2019-04-29T10:49:39.323Z,95647.50
2019-04-29T10:52:08.638Z,95566.52
2019-04-29T10:54:37.508Z,95634.62
2019-04-29T10:57:06.502Z,95638.55
2019-04-29T10:59:40.727Z,95641.22
2019-04-29T11:02:29.064Z,95638.07
2019-04-29T11:05:07.902Z,95643.84
2019-04-29T11:07:44.358Z,95635.00
2019-04-29T11:10:25.747Z,95642.16
2019-04-29T11:12:55.451Z,95634.33
2019-04-29T11:15:29.421Z,95636.77
2019-04-29T11:17:59.382Z,95628.61
2019-04-29T11:20:27.640Z,95629.69
2019-04-29T11:22:59.517Z,95632.17
2019-04-29T11:25:35.990Z,95623.09
2019-04-29T11:28:05.283Z,95632.09
2019-04-29T11:30:39.362Z,95627.44
2019-04-29T11:33:15.008Z,95633.80
2019-04-29T11:35:45.479Z,95631.02
2019-04-29T11:38:16.032Z,95631.59
2019-04-29T11:40:46.076Z,95631.93
2019-04-29T11:43:17.231Z,95634.03
2019-04-29T11:45:47.083Z,95639.43
2019-04-29T11:48:16.076Z,95627.64
2019-04-29T11:51:05.039Z,95627.09
2019-04-29T11:53:34.028Z,95628.94
2019-04-29T11:56:03.027Z,95631.39
2019-04-29T11:58:36.625Z,95626.67
2019-04-29T12:01:37.370Z,95626.62
2019-04-29T12:03:56.614Z,95619.86
2019-04-29T12:06:26.948Z,95617.23
2019-04-29T12:08:56.370Z,95607.98
2019-04-29T12:11:28.660Z,95617.48
2019-04-29T12:14:10.338Z,95620.48
2019-04-29T12:16:40.745Z,95611.71
2019-04-29T12:19:21.299Z,95611.44
2019-04-29T12:21:49.486Z,95614.97
2019-04-29T12:24:18.701Z,95605.45
2019-04-29T12:26:47.682Z,95594.44
2019-04-29T12:29:18.277Z,95600.09
2019-04-29T12:31:50.836Z,95609.47
2019-04-29T12:34:21.009Z,95607.34
2019-04-29T12:36:55.907Z,95606.40
2019-04-29T12:39:43.587Z,95602.43
2019-04-29T12:42:13.796Z,95609.33
2019-04-29T12:44:56.207Z,95602.77
2019-04-29T12:47:29.907Z,95597.59
2019-04-29T12:49:58.799Z,95603.08
2019-04-29T12:52:28.200Z,95604.48
2019-04-29T12:54:57.194Z,95604.09
2019-04-29T12:57:26.086Z,95605.73
2019-04-29T12:59:55.124Z,95605.77
2019-04-29T13:02:42.179Z,95610.16
2019-04-29T13:05:13.240Z,95601.95
2019-04-29T13:07:43.674Z,95601.57
2019-04-29T13:10:31.094Z,95590.78
2019-04-29T13:12:59.997Z,95586.81
2019-04-29T13:15:43.818Z,95586.27
2019-04-29T13:18:23.483Z,95585.64
2019-04-29T13:20:53.715Z,95583.12
2019-04-29T13:23:33.226Z,95584.78
2019-04-29T13:25:56.130Z,95578.34
2019-04-29T13:28:30.339Z,95578.36
2019-04-29T13:30:56.877Z,95577.17
2019-04-29T13:33:25.005Z,95568.45
2019-04-29T13:35:54.015Z,95573.55
2019-04-29T13:38:22.991Z,95568.16
2019-04-29T13:41:11.748Z,95567.16
2019-04-29T13:43:25.860Z,95562.41
2019-04-29T13:46:07.925Z,95569.31
2019-04-29T13:48:54.885Z,95557.56
2019-04-29T13:51:10.590Z,95562.81
2019-04-29T13:53:39.482Z,95561.77
2019-04-29T13:56:11.855Z,95555.20
2019-04-29T13:58:39.318Z,95544.19
2019-04-29T14:01:23.836Z,95549.89
2019-04-29T14:03:49.549Z,95548.58
2019-04-29T14:06:19.906Z,95549.78
2019-04-29T14:08:49.009Z,95547.77
2019-04-29T14:11:21.983Z,95541.64
2019-04-29T14:13:50.170Z,95541.92
2019-04-29T14:16:19.420Z,95536.69
2019-04-29T14:18:49.931Z,95533.38
2019-04-29T14:21:19.310Z,95541.73
2019-04-29T14:23:48.191Z,95545.73
2019-04-29T14:26:17.083Z,95544.63
2019-04-29T14:28:45.973Z,95548.27
2019-04-29T14:31:18.604Z,95552.47
2019-04-29T14:33:55.797Z,95542.30
2019-04-29T14:36:24.685Z,95535.64
2019-04-29T14:38:54.341Z,95538.08
2019-04-29T14:41:23.240Z,95539.11
2019-04-29T14:43:55.222Z,95538.93
2019-04-29T14:46:41.902Z,95539.07
2019-04-29T14:49:15.600Z,95542.58
2019-04-29T14:51:44.499Z,95540.38
2019-04-29T14:54:13.387Z,95532.91
2019-04-29T14:56:43.856Z,95535.34
2019-04-29T14:59:17.004Z,95538.49
2019-04-29T15:01:47.442Z,95535.90
2019-04-29T15:04:19.109Z,95546.11
2019-04-29T15:06:48.212Z,95540.11
2019-04-29T15:09:19.660Z,95538.64
2019-04-29T15:11:58.527Z,95551.45
2019-04-29T15:14:33.664Z,95547.06
2019-04-29T15:17:04.235Z,95550.08
2019-04-29T15:19:54.985Z,95552.21
2019-04-29T15:22:42.256Z,95555.02
2019-04-29T15:25:12.795Z,95553.96
2019-04-29T15:27:41.681Z,95553.59
2019-04-29T15:30:11.847Z,95547.28
2019-04-29T15:32:40.894Z,95553.89
2019-04-29T15:35:11.217Z,95555.34
2019-04-29T15:37:40.110Z,95552.98
2019-04-29T15:40:10.151Z,95553.62
2019-04-29T15:42:43.167Z,95549.13
2019-04-29T15:45:12.223Z,95551.17
2019-04-29T15:47:45.207Z,95550.73
2019-04-29T15:50:18.491Z,95552.91
2019-04-29T15:52:42.780Z,95554.62
2019-04-29T15:55:12.488Z,95551.88
2019-04-29T15:57:49.489Z,95553.05
2019-04-29T16:00:22.136Z,95543.59
2019-04-29T16:02:44.412Z,95541.23
2019-04-29T16:05:31.505Z,95550.55
2019-04-29T16:08:18.414Z,95543.00
2019-04-29T16:11:04.920Z,95546.62
2019-04-29T16:13:38.458Z,95540.82
2019-04-29T16:16:08.334Z,95543.72
2019-04-29T16:18:37.230Z,95551.83
2019-04-29T16:21:07.599Z,95548.95
2019-04-29T16:23:41.360Z,95548.10
2019-04-29T16:26:13.023Z,95555.92
2019-04-29T16:28:46.432Z,95555.20
2019-04-29T16:31:15.303Z,95555.20
2019-04-29T16:33:47.534Z,95548.24
2019-04-29T16:36:14.930Z,95548.97
2019-04-29T16:38:46.444Z,95555.20
2019-04-29T16:41:22.223Z,95551.42
2019-04-29T16:43:52.759Z,95547.11
2019-04-29T16:46:37.640Z,95551.17
2019-04-29T16:49:06.433Z,95552.75
2019-04-29T16:51:47.805Z,95550.55
2019-04-29T16:54:27.984Z,95549.13
2019-04-29T16:56:59.568Z,95555.51
2019-04-29T16:59:39.480Z,95561.31
2019-04-29T17:02:18.991Z,95556.50
2019-04-29T17:04:59.153Z,95553.31
2019-04-29T17:07:28.249Z,95556.19
2019-04-29T17:10:10.803Z,95551.13
2019-04-29T17:12:41.289Z,95550.63
2019-04-29T17:15:24.229Z,95543.26
2019-04-29T17:17:43.166Z,95544.89
2019-04-29T17:20:14.526Z,95550.77
2019-04-29T17:22:44.773Z,95543.16
2019-04-29T17:25:14.686Z,95542.84
2019-04-29T17:27:57.594Z,95545.48
2019-04-29T17:30:30.801Z,95544.66
2019-04-29T17:33:02.204Z,95553.06
2019-04-29T17:35:33.362Z,95549.50
2019-04-29T17:38:02.255Z,95545.69
2019-04-29T17:40:31.247Z,95542.34
2019-04-29T17:43:04.933Z,95547.10
2019-04-29T17:45:42.750Z,95547.91
2019-04-29T17:48:18.332Z,95550.11
2019-04-29T17:50:47.764Z,95548.98
2019-04-29T17:53:30.518Z,95556.70
2019-04-29T17:56:09.941Z,95551.50
2019-04-29T17:58:55.884Z,95550.89
2019-04-29T18:01:42.580Z,95564.64
2019-04-29T18:04:11.716Z,95561.88
2019-04-29T18:06:43.410Z,95557.20
2019-04-29T18:09:29.301Z,95560.83
2019-04-29T18:11:58.665Z,95558.39
2019-04-29T18:14:36.542Z,95560.48
2019-04-29T18:16:59.557Z,95563.52
2019-04-29T18:19:47.191Z,95555.98
2019-04-29T18:22:35.001Z,95555.67
2019-04-29T18:25:08.222Z,95552.84
2019-04-29T18:27:38.594Z,95554.12
2019-04-29T18:30:12.270Z,95555.03
2019-04-29T18:32:42.175Z,95552.56
2019-04-29T18:35:10.947Z,95548.70
2019-04-29T18:37:41.376Z,95558.73
2019-04-29T18:40:11.190Z,95558.91
2019-04-29T18:42:43.309Z,95559.66
2019-04-29T18:45:11.735Z,95565.95
2019-04-29T18:47:40.627Z,95567.49
2019-04-29T18:50:10.650Z,95567.75
2019-04-29T18:52:39.545Z,95573.84
2019-04-29T18:55:09.146Z,95574.47
2019-04-29T18:57:38.311Z,95571.97
2019-04-29T19:00:12.469Z,95577.91
2019-04-29T19:02:46.090Z,95573.20
2019-04-29T19:05:21.092Z,95573.98
2019-04-29T19:07:55.276Z,95570.21
2019-04-29T19:10:32.013Z,95576.36
2019-04-29T19:12:59.541Z,95581.06
2019-04-29T19:15:21.882Z,95576.47
2019-04-29T19:17:59.214Z,95580.27
2019-04-29T19:20:21.490Z,95583.92
2019-04-29T19:22:55.804Z,95585.08
2019-04-29T19:25:20.839Z,95587.20
2019-04-29T19:27:49.715Z,95587.12
2019-04-29T19:30:21.087Z,95579.69
2019-04-29T19:32:49.442Z,95588.09
2019-04-29T19:35:18.437Z,95587.83
2019-04-29T19:37:47.429Z,95598.13
2019-04-29T19:40:16.320Z,95595.92
2019-04-29T19:42:46.866Z,95595.64
2019-04-29T19:45:17.457Z,95598.22
2019-04-29T19:47:52.032Z,95593.62
2019-04-29T19:50:19.427Z,95600.33
2019-04-29T19:52:47.741Z,95598.81
2019-04-29T19:55:16.631Z,95600.92
2019-04-29T19:57:48.207Z,95601.13
2019-04-29T20:00:17.781Z,95607.75
2019-04-29T20:02:50.142Z,95608.25
2019-04-29T20:05:35.375Z,95612.56
2019-04-29T20:08:02.653Z,95603.45
2019-04-29T20:10:44.390Z,95605.45
2019-04-29T20:13:04.480Z,95607.73
2019-04-29T20:15:37.459Z,95608.74
2019-04-29T20:18:26.067Z,95604.83
2019-04-29T20:21:07.604Z,95606.02
2019-04-29T20:23:26.447Z,95608.53
2019-04-29T20:26:05.481Z,95607.02
2019-04-29T20:28:26.359Z,95606.48
2019-04-29T20:31:08.231Z,95606.47
2019-04-29T20:33:26.185Z,95600.11
2019-04-29T20:35:56.274Z,95604.08
2019-04-29T20:38:29.903Z,95604.91
2019-04-29T20:40:56.374Z,95597.11
2019-04-29T20:43:28.551Z,95600.27
2019-04-29T20:45:58.121Z,95599.77
2019-04-29T20:48:26.739Z,95599.67
2019-04-29T20:50:56.629Z,95592.47
2019-04-29T20:53:34.912Z,95596.67
2019-04-29T20:56:10.353Z,95589.36
2019-04-29T20:58:33.264Z,95599.67
2019-04-29T21:01:05.167Z,95593.10
2019-04-29T21:03:33.437Z,95589.27
2019-04-29T21:06:06.195Z,95592.47
2019-04-29T21:08:35.015Z,95596.06
2019-04-29T21:11:05.881Z,95597.22
2019-04-29T21:13:42.391Z,95595.63
2019-04-29T21:16:29.036Z,95596.77
2019-04-29T21:18:56.675Z,95595.06
2019-04-29T21:21:25.626Z,95597.51
2019-04-29T21:23:55.293Z,95594.27
2019-04-29T21:26:26.071Z,95600.06
2019-04-29T21:28:55.529Z,95599.61
2019-04-29T21:31:25.465Z,95599.70
2019-04-29T21:33:58.658Z,95590.80
2019-04-29T21:36:45.251Z,95590.10
2019-04-29T21:39:32.394Z,95587.70
2019-04-29T21:42:16.804Z,95586.19
2019-04-29T21:44:45.660Z,95587.89
2019-04-29T21:47:16.163Z,95591.70
2019-04-29T21:49:45.751Z,95578.98
2019-04-29T21:52:19.568Z,95580.89
2019-04-29T21:54:49.183Z,95593.91
2019-04-29T21:57:23.453Z,95591.16
2019-04-29T21:59:48.665Z,95584.72
2019-04-29T22:02:19.079Z,95588.06
2019-04-29T22:04:48.052Z,95580.45
2019-04-29T22:07:17.043Z,95575.45
2019-04-29T22:09:50.011Z,95575.45
2019-04-29T22:12:20.285Z,95562.41
2019-04-29T22:14:52.585Z,95561.11
2019-04-29T22:17:18.450Z,95555.14
2019-04-29T22:19:47.336Z,95562.70
2019-04-29T22:22:16.329Z,95554.55
2019-04-29T22:24:45.793Z,95558.70
2019-04-29T22:27:16.189Z,95557.45
2019-04-29T22:29:45.432Z,95552.20
2019-04-29T22:32:19.168Z,95561.81
2019-04-29T22:34:49.543Z,95562.02
2019-04-29T22:37:17.151Z,95558.91
2019-04-29T22:39:46.045Z,95556.41
2019-04-29T22:42:29.066Z,95556.70
2019-04-29T22:45:00.665Z,95555.11
2019-04-29T22:47:28.588Z,95548.13
2019-04-29T22:49:58.758Z,95549.92
2019-04-29T22:52:29.966Z,95552.62
2019-04-29T22:55:01.570Z,95553.17
2019-04-29T22:57:31.656Z,95542.02
2019-04-29T22:59:59.700Z,95542.72
2019-04-29T23:02:28.633Z,95534.67
2019-04-29T23:04:57.584Z,95537.03
2019-04-29T23:07:26.492Z,95524.67
2019-04-29T23:09:55.498Z,95520.67
2019-04-29T23:12:26.102Z,95525.03
2019-04-29T23:14:56.554Z,95525.11
2019-04-29T23:17:25.625Z,95524.72
2019-04-29T23:19:57.046Z,95521.91
2019-04-29T23:22:39.380Z,95519.52
2019-04-29T23:25:15.303Z,95518.08
2019-04-29T23:27:44.131Z,95524.52
2019-04-29T23:30:18.067Z,95523.25
2019-04-29T23:32:47.500Z,95515.57
2019-04-29T23:35:16.636Z,95518.41
2019-04-29T23:37:45.829Z,95516.27
2019-04-29T23:40:15.033Z,95511.67
2019-04-29T23:42:47.971Z,95514.25
2019-04-29T23:45:21.065Z,95509.20
2019-04-29T23:47:46.982Z,95506.27
2019-04-29T23:50:18.588Z,95502.27
2019-04-29T23:52:50.655Z,95504.27
2019-04-29T23:55:20.430Z,95511.68
2019-04-29T23:58:07.898Z,95505.01
